Time;durP1;ratioP1;P1;durP2;ratioP2;P2;SDS_P1;SDS_P2;PMS_P1;PMS_P2;Temp;Humidity;BMP_temperature;BMP_pressure;BME280_temperature;BME280_humidity;BME280_pressure;Samples;Min_cycle;Max_cycle;Signal;HPM_P1;HPM_P2
2022/12/18 00:01:05;;;;;;;;;;;23.40;25.70;;;;;;5072490;28;20347;-70
2022/12/18 00:03:33;;;;;;;;;;;23.20;25.80;;;;;;5072237;28;20373;-67
2022/12/18 00:05:58;;;;;;;;;;;23.10;26.00;;;;;;5073362;28;19920;-67
2022/12/18 00:08:24;;;;;;;;;;;22.90;26.10;;;;;;5072454;28;20010;-67
2022/12/18 00:10:49;;;;;;;;;;;22.70;26.30;;;;;;5071990;28;19928;-71
2022/12/18 00:13:15;;;;;;;;;;;22.50;26.40;;;;;;5071994;28;19924;-67
2022/12/18 00:15:40;;;;;;;;;;;22.30;26.60;;;;;;5072245;28;19925;-67
2022/12/18 00:18:06;;;;;;;;;;;22.10;26.80;;;;;;5072152;28;20377;-67
2022/12/18 00:20:35;;;;;;;;;;;21.90;26.90;;;;;;5073304;28;19921;-67
2022/12/18 00:23:01;;;;;;;;;;;21.80;27.00;;;;;;5071551;28;19925;-67
2022/12/18 00:25:26;;;;;;;;;;;21.60;27.10;;;;;;5071744;28;19978;-70
2022/12/18 00:27:52;;;;;;;;;;;21.40;27.20;;;;;;5071999;28;19927;-71
2022/12/18 00:30:17;;;;;;;;;;;21.30;27.50;;;;;;5072959;28;20303;-67
2022/12/18 00:32:43;;;;;;;;;;;21.10;27.60;;;;;;5071629;28;20368;-67
2022/12/18 00:35:08;;;;;;;;;;;21.00;28.30;;;;;;5071899;28;19920;-67
2022/12/18 00:37:34;;;;;;;;;;;20.80;27.90;;;;;;5071528;28;20082;-67
2022/12/18 00:40:00;;;;;;;;;;;20.60;28.00;;;;;;5071529;28;19920;-67
2022/12/18 00:42:57;;;;;;;;;;;20.40;28.10;;;;;;5072719;28;19932;-67
2022/12/18 00:45:11;;;;;;;;;;;20.30;28.20;;;;;;5071400;28;19920;-67
2022/12/18 00:47:36;;;;;;;;;;;20.20;28.40;;;;;;5072641;28;19927;-70
2022/12/18 00:50:02;;;;;;;;;;;20.00;28.50;;;;;;5071680;28;19926;-67
2022/12/18 00:52:27;;;;;;;;;;;19.90;28.60;;;;;;5071303;28;19920;-67
2022/12/18 00:54:53;;;;;;;;;;;19.80;28.70;;;;;;5071651;28;19928;-67
2022/12/18 00:57:19;;;;;;;;;;;19.70;28.80;;;;;;5071423;28;20334;-67
2022/12/18 00:59:44;;;;;;;;;;;19.60;28.90;;;;;;5071548;28;20384;-66
2022/12/18 01:02:10;;;;;;;;;;;19.50;29.00;;;;;;5071419;28;19976;-67
2022/12/18 01:04:35;;;;;;;;;;;19.40;29.10;;;;;;5071484;28;20298;-67
2022/12/18 01:07:01;;;;;;;;;;;19.20;29.10;;;;;;5071228;28;19927;-67
2022/12/18 01:09:26;;;;;;;;;;;19.20;29.20;;;;;;5071114;28;19926;-67
2022/12/18 01:11:52;;;;;;;;;;;19.10;29.30;;;;;;5071150;28;19921;-67
2022/12/18 01:14:17;;;;;;;;;;;19.00;29.30;;;;;;5072260;28;19978;-67
2022/12/18 01:16:43;;;;;;;;;;;19.00;29.50;;;;;;5071447;28;20334;-67
2022/12/18 01:19:08;;;;;;;;;;;19.30;29.30;;;;;;5071312;28;20323;-67
2022/12/18 01:21:34;;;;;;;;;;;19.80;28.90;;;;;;5071354;28;20360;-67
2022/12/18 01:23:59;;;;;;;;;;;20.60;28.30;;;;;;5087783;28;19931;-69
2022/12/18 01:26:27;;;;;;;;;;;21.40;27.60;;;;;;5092614;28;19921;-67
2022/12/18 01:28:54;;;;;;;;;;;22.20;26.90;;;;;;5074311;28;19924;-67
2022/12/18 01:31:22;;;;;;;;;;;23.10;26.10;;;;;;5092752;28;19924;-67
2022/12/18 01:33:48;;;;;;;;;;;23.90;25.50;;;;;;5092434;28;19951;-67
2022/12/18 01:36:30;;;;;;;;;;;24.50;24.90;;;;;;5092490;28;20005;-67
2022/12/18 01:38:56;;;;;;;;;;;25.10;24.40;;;;;;5092298;28;19920;-67
2022/12/18 01:41:23;;;;;;;;;;;25.60;24.00;;;;;;5073836;28;19935;-70
2022/12/18 01:46:30;;;;;;;;;;;26.30;23.50;;;;;;5110361;27;19919;-66
2022/12/18 01:48:57;;;;;;;;;;;26.70;23.40;;;;;;5108982;28;20010;-69
2022/12/18 01:51:22;;;;;;;;;;;26.90;23.20;;;;;;5108891;28;20371;-66
2022/12/18 01:53:48;;;;;;;;;;;27.10;23.10;;;;;;5109264;28;19928;-65
2022/12/18 01:56:15;;;;;;;;;;;27.30;22.90;;;;;;5108697;28;19973;-69
2022/12/18 01:59:00;;;;;;;;;;;27.40;22.80;;;;;;5108757;28;19927;-66
2022/12/18 02:01:26;;;;;;;;;;;27.50;22.70;;;;;;5108547;28;20399;-65
2022/12/18 02:03:52;;;;;;;;;;;27.70;22.70;;;;;;5108682;28;19923;-66
2022/12/18 02:06:25;;;;;;;;;;;27.60;22.70;;;;;;5108584;28;19924;-66
2022/12/18 02:17:07;;;;;;;;;;;27.10;23.00;;;;;;5110285;27;19919;-66
2022/12/18 02:22:26;;;;;;;;;;;26.60;23.20;;;;;;5089947;27;19916;-65
2022/12/18 02:24:58;;;;;;;;;;;26.30;23.30;;;;;;5088671;28;19927;-66
2022/12/18 02:27:24;;;;;;;;;;;26.00;23.40;;;;;;5088822;28;19920;-66
2022/12/18 02:29:51;;;;;;;;;;;25.80;23.60;;;;;;5088526;28;20474;-66
2022/12/18 02:32:19;;;;;;;;;;;25.50;23.70;;;;;;5088503;28;19926;-66
2022/12/18 02:34:45;;;;;;;;;;;25.30;23.80;;;;;;5088426;28;20372;-66
2022/12/18 02:37:13;;;;;;;;;;;25.10;23.90;;;;;;5088650;28;19921;-66
2022/12/18 02:39:40;;;;;;;;;;;24.90;24.10;;;;;;5089634;28;20372;-66
2022/12/18 02:42:08;;;;;;;;;;;24.70;24.30;;;;;;5089514;28;20323;-66
2022/12/18 02:44:35;;;;;;;;;;;24.50;24.30;;;;;;5089502;28;20066;-66
2022/12/18 02:47:00;;;;;;;;;;;24.30;25.10;;;;;;5088163;28;19920;-66
2022/12/18 02:49:46;;;;;;;;;;;24.10;24.60;;;;;;5105088;28;19928;-65
2022/12/18 02:52:31;;;;;;;;;;;23.90;24.70;;;;;;5088184;28;19920;-66
2022/12/18 02:55:04;;;;;;;;;;;23.70;24.90;;;;;;5089081;28;19920;-66
2022/12/18 02:57:44;;;;;;;;;;;23.50;25.00;;;;;;5089133;28;19927;-66
2022/12/18 03:00:12;;;;;;;;;;;23.30;25.20;;;;;;5087896;28;19936;-66
2022/12/18 03:02:48;;;;;;;;;;;23.10;25.30;;;;;;5087826;28;19928;-66
2022/12/18 03:05:19;;;;;;;;;;;22.90;25.40;;;;;;5088209;28;19927;-69
2022/12/18 03:07:48;;;;;;;;;;;22.70;25.60;;;;;;5087015;28;19963;-66
2022/12/18 03:10:18;;;;;;;;;;;22.50;25.80;;;;;;5089087;28;20015;-66
2022/12/18 03:12:46;;;;;;;;;;;22.30;25.90;;;;;;5088954;28;19924;-66
2022/12/18 03:15:14;;;;;;;;;;;22.10;26.10;;;;;;5089186;28;20114;-66
2022/12/18 03:17:42;;;;;;;;;;;21.90;26.50;;;;;;5087661;28;20508;-69
2022/12/18 03:20:11;;;;;;;;;;;21.70;26.40;;;;;;5089843;28;19967;-66
2022/12/18 03:22:38;;;;;;;;;;;21.40;26.50;;;;;;5090930;28;20391;-66
2022/12/18 03:25:05;;;;;;;;;;;21.30;26.70;;;;;;5091168;28;19920;-66
2022/12/18 03:27:33;;;;;;;;;;;21.20;26.70;;;;;;5090808;28;19962;-65
2022/12/18 03:30:07;;;;;;;;;;;21.00;26.90;;;;;;5109051;28;20325;-66
2022/12/18 03:32:40;;;;;;;;;;;20.80;27.00;;;;;;5083660;28;19924;-66
2022/12/18 03:35:06;;;;;;;;;;;20.60;27.20;;;;;;5077206;28;20885;-66
2022/12/18 03:37:32;;;;;;;;;;;20.50;27.30;;;;;;5077084;28;20407;-68
2022/12/18 03:39:58;;;;;;;;;;;20.40;28.00;;;;;;5077310;28;19920;-69
2022/12/18 03:42:28;;;;;;;;;;;20.20;27.50;;;;;;5077410;28;19924;-66
2022/12/18 03:47:39;;;;;;;;;;;19.90;27.60;;;;;;5089936;28;19919;-68
2022/12/18 03:53:06;;;;;;;;;;;20.60;27.40;;;;;;5110351;27;19912;-66
2022/12/18 03:55:33;;;;;;;;;;;21.30;26.80;;;;;;5109134;28;19962;-69
2022/12/18 03:57:59;;;;;;;;;;;22.10;26.20;;;;;;5109053;28;19920;-66
2022/12/18 04:00:25;;;;;;;;;;;22.90;25.60;;;;;;5108835;28;19920;-65
2022/12/18 04:02:51;;;;;;;;;;;23.70;24.90;;;;;;5109115;28;19920;-69
2022/12/18 04:05:18;;;;;;;;;;;24.40;25.00;;;;;;5108828;28;19920;-66
2022/12/18 04:07:46;;;;;;;;;;;25.00;23.90;;;;;;5108794;28;19927;-66
2022/12/18 04:10:12;;;;;;;;;;;25.50;23.50;;;;;;5108988;28;19920;-65
2022/12/18 04:12:37;;;;;;;;;;;25.90;23.20;;;;;;5109863;28;19931;-66
2022/12/18 04:15:03;;;;;;;;;;;26.30;23.00;;;;;;5108895;28;19982;-66
2022/12/18 04:17:29;;;;;;;;;;;26.60;22.80;;;;;;5108891;28;19923;-69
2022/12/18 04:19:54;;;;;;;;;;;26.90;22.60;;;;;;5109751;28;19920;-66
2022/12/18 04:22:20;;;;;;;;;;;27.10;22.50;;;;;;5108515;28;19919;-66
2022/12/18 04:24:45;;;;;;;;;;;27.30;22.40;;;;;;5108648;28;19919;-68
2022/12/18 04:27:11;;;;;;;;;;;27.50;22.30;;;;;;5108658;28;19921;-66
2022/12/18 04:29:36;;;;;;;;;;;27.60;22.20;;;;;;5109443;28;19920;-66
2022/12/18 04:32:02;;;;;;;;;;;27.70;22.20;;;;;;5108270;28;19924;-66
2022/12/18 04:34:27;;;;;;;;;;;27.80;22.10;;;;;;5108235;28;19931;-66
2022/12/18 04:36:53;;;;;;;;;;;27.90;22.10;;;;;;5108174;28;19920;-66
2022/12/18 04:39:19;;;;;;;;;;;28.00;22.00;;;;;;5109398;28;19967;-65
2022/12/18 04:41:44;;;;;;;;;;;28.00;22.00;;;;;;5108360;28;19973;-66
2022/12/18 04:44:10;;;;;;;;;;;28.10;21.90;;;;;;5109317;28;19920;-66
2022/12/18 04:46:35;;;;;;;;;;;28.20;22.00;;;;;;5109170;28;19920;-66
2022/12/18 04:49:03;;;;;;;;;;;28.20;21.90;;;;;;5109292;28;19967;-66
2022/12/18 04:51:29;;;;;;;;;;;28.20;21.90;;;;;;5107626;28;19959;-66
2022/12/18 04:53:54;;;;;;;;;;;28.10;21.90;;;;;;5108166;28;20395;-66
2022/12/18 04:56:20;;;;;;;;;;;28.20;21.90;;;;;;5107830;28;20310;-66
2022/12/18 04:58:45;;;;;;;;;;;28.20;21.80;;;;;;5107959;28;19927;-66
2022/12/18 05:01:12;;;;;;;;;;;28.20;21.80;;;;;;5108858;28;20038;-66
2022/12/18 05:03:38;;;;;;;;;;;28.20;21.80;;;;;;5096605;28;19923;-66
2022/12/18 05:06:04;;;;;;;;;;;28.30;21.90;;;;;;5094420;28;19927;-66
2022/12/18 05:08:30;;;;;;;;;;;28.20;21.80;;;;;;5094385;28;20333;-66
2022/12/18 05:11:12;;;;;;;;;;;28.20;21.80;;;;;;5095154;28;19924;-66
2022/12/18 05:13:37;;;;;;;;;;;28.20;21.90;;;;;;5095120;28;19926;-66
2022/12/18 05:16:04;;;;;;;;;;;28.10;21.80;;;;;;5095132;28;19924;-66
2022/12/18 05:18:29;;;;;;;;;;;28.10;21.90;;;;;;5093881;28;20006;-66
2022/12/18 05:20:55;;;;;;;;;;;28.00;21.90;;;;;;5094023;28;19968;-66
2022/12/18 05:23:21;;;;;;;;;;;28.00;22.00;;;;;;5095158;28;20377;-66
2022/12/18 05:25:55;;;;;;;;;;;27.90;22.00;;;;;;5094023;28;19920;-66
2022/12/18 05:28:21;;;;;;;;;;;27.90;22.00;;;;;;5094828;28;19923;-66
2022/12/18 05:30:47;;;;;;;;;;;27.90;22.00;;;;;;5092883;28;19978;-66
2022/12/18 05:33:13;;;;;;;;;;;27.90;22.00;;;;;;5094634;28;19920;-68
2022/12/18 05:35:38;;;;;;;;;;;27.90;22.00;;;;;;5093809;28;19920;-66
2022/12/18 05:38:04;;;;;;;;;;;27.90;22.00;;;;;;5093436;28;20445;-66
2022/12/18 05:40:29;;;;;;;;;;;27.90;22.10;;;;;;5092729;28;19920;-66
2022/12/18 05:42:55;;;;;;;;;;;27.80;22.00;;;;;;5093079;28;19920;-66
2022/12/18 05:45:20;;;;;;;;;;;27.80;22.00;;;;;;5093351;28;19920;-66
2022/12/18 05:47:46;;;;;;;;;;;27.80;22.00;;;;;;5093233;28;19920;-69
2022/12/18 05:50:11;;;;;;;;;;;27.80;22.00;;;;;;5094526;28;19920;-66
2022/12/18 05:52:37;;;;;;;;;;;27.80;22.00;;;;;;5113661;28;19931;-66
2022/12/18 05:55:02;;;;;;;;;;;27.80;22.00;;;;;;5114744;28;19920;-66
2022/12/18 05:57:28;;;;;;;;;;;27.80;22.00;;;;;;5114603;28;19930;-67
2022/12/18 05:59:54;;;;;;;;;;;27.80;22.00;;;;;;5114594;28;19920;-67
2022/12/18 06:02:20;;;;;;;;;;;27.80;22.00;;;;;;5096298;28;19923;-67
2022/12/18 06:04:46;;;;;;;;;;;27.80;22.00;;;;;;5114608;28;19923;-67
2022/12/18 06:07:12;;;;;;;;;;;27.80;22.00;;;;;;5096308;28;19919;-67
2022/12/18 06:09:38;;;;;;;;;;;27.80;22.00;;;;;;5114530;28;19924;-67
2022/12/18 06:12:03;;;;;;;;;;;27.80;22.00;;;;;;5096200;28;20386;-67
2022/12/18 06:14:29;;;;;;;;;;;27.80;22.00;;;;;;5113242;28;19934;-69
2022/12/18 06:16:54;;;;;;;;;;;27.80;22.10;;;;;;5096344;28;19924;-67
2022/12/18 06:19:20;;;;;;;;;;;27.80;22.10;;;;;;5096208;28;19926;-66
2022/12/18 06:21:46;;;;;;;;;;;27.70;22.00;;;;;;5114377;28;19998;-69
2022/12/18 06:24:11;;;;;;;;;;;27.70;22.00;;;;;;5096137;28;19973;-69
2022/12/18 06:26:38;;;;;;;;;;;27.70;22.00;;;;;;5095859;28;19931;-67
2022/12/18 06:29:04;;;;;;;;;;;27.70;22.00;;;;;;5114074;28;19964;-67
2022/12/18 06:31:30;;;;;;;;;;;27.70;22.00;;;;;;5113887;28;20018;-67
2022/12/18 06:33:55;;;;;;;;;;;27.60;22.00;;;;;;5113987;28;19927;-67
2022/12/18 06:36:21;;;;;;;;;;;27.60;22.00;;;;;;5114116;28;20064;-67
2022/12/18 06:38:47;;;;;;;;;;;27.60;22.00;;;;;;5113827;28;19958;-69
2022/12/18 06:41:13;;;;;;;;;;;27.60;22.00;;;;;;5095993;28;19920;-67
2022/12/18 06:43:39;;;;;;;;;;;27.50;21.90;;;;;;5095542;28;19919;-67
2022/12/18 06:46:05;;;;;;;;;;;27.50;21.90;;;;;;5095512;28;19943;-67
2022/12/18 06:48:31;;;;;;;;;;;27.50;21.90;;;;;;5095449;28;20011;-67
2022/12/18 06:50:56;;;;;;;;;;;27.50;22.00;;;;;;5095014;28;19951;-67
2022/12/18 06:53:22;;;;;;;;;;;27.50;22.00;;;;;;5095737;28;19927;-67
2022/12/18 06:55:48;;;;;;;;;;;27.50;22.00;;;;;;5095604;28;19974;-67
2022/12/18 06:58:14;;;;;;;;;;;27.50;22.00;;;;;;5095428;28;20393;-67
2022/12/18 07:00:39;;;;;;;;;;;27.50;22.00;;;;;;5095098;28;19920;-67
2022/12/18 07:03:05;;;;;;;;;;;27.50;21.90;;;;;;5095515;28;19923;-67
2022/12/18 07:05:30;;;;;;;;;;;27.40;21.90;;;;;;5113414;28;20010;-67
2022/12/18 07:07:56;;;;;;;;;;;27.50;21.90;;;;;;5095515;28;19920;-67
2022/12/18 07:10:21;;;;;;;;;;;27.50;21.90;;;;;;5095019;28;19924;-67
2022/12/18 07:12:47;;;;;;;;;;;27.50;22.50;;;;;;5113276;28;19924;-67
2022/12/18 07:15:12;;;;;;;;;;;27.50;21.90;;;;;;5113208;28;19927;-66
2022/12/18 07:17:38;;;;;;;;;;;27.50;21.90;;;;;;5095296;28;20350;-67
2022/12/18 07:20:03;;;;;;;;;;;27.50;21.90;;;;;;5113174;28;19919;-67
2022/12/18 07:22:29;;;;;;;;;;;27.40;21.80;;;;;;5094908;28;19927;-67
2022/12/18 07:24:55;;;;;;;;;;;27.40;21.80;;;;;;5095109;28;19920;-67
2022/12/18 07:27:20;;;;;;;;;;;27.40;21.80;;;;;;5112889;28;19919;-66
2022/12/18 07:29:46;;;;;;;;;;;27.40;21.90;;;;;;5094791;28;19920;-67
2022/12/18 07:32:11;;;;;;;;;;;27.40;21.80;;;;;;5112822;28;19923;-69
2022/12/18 07:34:37;;;;;;;;;;;27.40;21.90;;;;;;5094663;28;19973;-67
2022/12/18 07:37:02;;;;;;;;;;;27.40;21.80;;;;;;5094639;28;19920;-68
2022/12/18 07:39:28;;;;;;;;;;;27.40;21.80;;;;;;5095010;28;19920;-67
2022/12/18 07:44:39;;;;;;;;;;;27.30;21.80;;;;;;5112607;28;19920;-67
2022/12/18 07:47:04;;;;;;;;;;;27.30;21.80;;;;;;5094507;28;20299;-67
2022/12/18 07:49:30;;;;;;;;;;;27.40;21.90;;;;;;5113039;28;19927;-67
2022/12/18 07:51:56;;;;;;;;;;;27.30;21.80;;;;;;5094121;28;19954;-67
2022/12/18 07:54:22;;;;;;;;;;;27.30;21.80;;;;;;5094536;28;19955;-67
2022/12/18 07:56:47;;;;;;;;;;;27.30;21.80;;;;;;5112713;28;20393;-67
2022/12/18 07:59:13;;;;;;;;;;;27.40;21.80;;;;;;5094352;28;19963;-67
2022/12/18 08:01:38;;;;;;;;;;;27.40;21.80;;;;;;5094285;28;19966;-67
2022/12/18 08:04:04;;;;;;;;;;;27.30;21.80;;;;;;5094485;28;19927;-67
2022/12/18 08:06:30;;;;;;;;;;;27.30;21.80;;;;;;5094392;28;19919;-67
2022/12/18 08:08:56;;;;;;;;;;;27.30;21.80;;;;;;5094429;28;19920;-67
2022/12/18 08:11:22;;;;;;;;;;;27.30;21.80;;;;;;5112502;28;19946;-67
2022/12/18 08:13:48;;;;;;;;;;;27.30;21.80;;;;;;5094610;28;19972;-67
2022/12/18 08:16:13;;;;;;;;;;;27.30;21.70;;;;;;5094271;28;20309;-67
2022/12/18 08:18:39;;;;;;;;;;;27.30;21.70;;;;;;5094160;28;19926;-67
2022/12/18 08:21:09;;;;;;;;;;;27.30;21.70;;;;;;5112728;28;19928;-67
2022/12/18 08:23:35;;;;;;;;;;;27.30;21.80;;;;;;5094604;28;20431;-67
2022/12/18 08:26:00;;;;;;;;;;;27.30;21.80;;;;;;5094292;28;19923;-67
2022/12/18 08:28:26;;;;;;;;;;;27.20;21.70;;;;;;5094472;28;19926;-67
2022/12/18 08:30:52;;;;;;;;;;;27.30;21.80;;;;;;5112360;28;19923;-67
2022/12/18 08:33:17;;;;;;;;;;;27.30;21.80;;;;;;5094096;28;19984;-67
2022/12/18 08:35:43;;;;;;;;;;;27.20;21.70;;;;;;5094468;28;20011;-67
2022/12/18 08:38:08;;;;;;;;;;;27.20;21.70;;;;;;5095520;28;19919;-67
2022/12/18 08:40:34;;;;;;;;;;;27.20;21.70;;;;;;5116194;28;19919;-67
2022/12/18 08:45:45;;;;;;;;;;;27.20;21.70;;;;;;5097586;28;20367;-67
2022/12/18 08:48:10;;;;;;;;;;;27.20;21.70;;;;;;5097754;28;20033;-67
2022/12/18 08:50:36;;;;;;;;;;;27.20;21.70;;;;;;5115623;28;19935;-67
2022/12/18 08:53:02;;;;;;;;;;;27.20;21.70;;;;;;5097704;28;20029;-67
2022/12/18 08:55:27;;;;;;;;;;;27.20;21.70;;;;;;5098034;28;19931;-67
2022/12/18 08:57:53;;;;;;;;;;;27.20;21.70;;;;;;5097791;28;19945;-67
2022/12/18 09:00:18;;;;;;;;;;;27.20;21.70;;;;;;5115832;28;19920;-67
2022/12/18 09:02:44;;;;;;;;;;;27.20;21.70;;;;;;5115734;28;19920;-67
2022/12/18 09:05:09;;;;;;;;;;;27.20;21.70;;;;;;5097795;28;19920;-68
2022/12/18 09:07:36;;;;;;;;;;;27.20;21.70;;;;;;5097497;28;19920;-67
2022/12/18 09:10:01;;;;;;;;;;;27.20;21.70;;;;;;5097618;28;20014;-67
2022/12/18 09:12:27;;;;;;;;;;;27.20;21.70;;;;;;5115566;28;20019;-70
2022/12/18 09:14:53;;;;;;;;;;;27.20;21.70;;;;;;5097253;28;20382;-67
2022/12/18 09:17:18;;;;;;;;;;;27.20;21.60;;;;;;5097057;28;19919;-67
2022/12/18 09:19:44;;;;;;;;;;;27.20;21.60;;;;;;5115452;28;20006;-66
2022/12/18 09:22:09;;;;;;;;;;;27.10;21.60;;;;;;5097098;28;19920;-70
2022/12/18 09:24:35;;;;;;;;;;;27.20;21.70;;;;;;5097409;28;19926;-68
2022/12/18 09:27:00;;;;;;;;;;;27.10;21.60;;;;;;5097045;28;20282;-67
2022/12/18 09:29:26;;;;;;;;;;;27.10;21.60;;;;;;5096351;28;19976;-67
2022/12/18 09:31:51;;;;;;;;;;;27.10;21.60;;;;;;5096824;28;19968;-67
2022/12/18 09:34:17;;;;;;;;;;;27.10;21.60;;;;;;5096910;28;19928;-67
2022/12/18 09:36:43;;;;;;;;;;;27.10;21.60;;;;;;5115381;28;19920;-67
2022/12/18 09:39:08;;;;;;;;;;;27.20;21.60;;;;;;5097046;28;19920;-67
2022/12/18 09:41:53;;;;;;;;;;;27.20;21.60;;;;;;5096828;28;20010;-67
2022/12/18 09:44:22;;;;;;;;;;;27.20;21.60;;;;;;5115093;28;19950;-67
2022/12/18 09:46:55;;;;;;;;;;;27.20;21.60;;;;;;5095969;28;19931;-67
2022/12/18 09:49:23;;;;;;;;;;;27.10;21.50;;;;;;5114839;28;20019;-67
2022/12/18 09:57:14;;;;;;;;;;;27.20;21.60;;;;;;5127349;27;1863974;-66
2022/12/18 09:59:41;;;;;;;;;;;27.20;21.70;;;;;;5174089;27;19930;-66
2022/12/18 10:02:15;;;;;;;;;;;27.20;21.60;;;;;;5174681;27;19919;-66
2022/12/18 10:04:41;;;;;;;;;;;27.10;21.50;;;;;;5174399;27;19925;-67
2022/12/18 10:07:13;;;;;;;;;;;27.20;21.50;;;;;;5174262;27;19919;-67
2022/12/18 10:09:52;;;;;;;;;;;27.20;21.60;;;;;;5174280;27;19926;-69
2022/12/18 10:15:00;;;;;;;;;;;27.20;21.50;;;;;;5131918;27;1855889;-66
2022/12/18 10:20:26;;;;;;;;;;;27.20;21.60;;;;;;5089979;28;19912;-66
2022/12/18 10:25:36;;;;;;;;;;;27.10;21.50;;;;;;5127682;27;1862354;-66
2022/12/18 10:28:17;;;;;;;;;;;27.10;21.60;;;;;;5174424;27;19918;-66
2022/12/18 10:30:43;;;;;;;;;;;27.10;21.60;;;;;;5174589;27;19919;-66
2022/12/18 10:33:11;;;;;;;;;;;27.00;21.50;;;;;;5174357;27;19970;-66
2022/12/18 10:35:40;;;;;;;;;;;27.00;21.50;;;;;;5174640;27;20281;-66
2022/12/18 10:38:20;;;;;;;;;;;27.00;21.50;;;;;;5192982;27;19919;-65
2022/12/18 10:43:29;;;;;;;;;;;27.00;21.50;;;;;;5127896;27;1854992;-66
2022/12/18 10:46:00;;;;;;;;;;;27.10;21.50;;;;;;5174523;27;19926;-66
2022/12/18 10:48:26;;;;;;;;;;;27.00;21.40;;;;;;5174797;27;20002;-66
2022/12/18 10:50:52;;;;;;;;;;;27.10;21.50;;;;;;5174647;27;20018;-66
2022/12/18 10:53:21;;;;;;;;;;;27.10;21.40;;;;;;5193131;27;19958;-67
2022/12/18 10:55:47;;;;;;;;;;;27.10;21.40;;;;;;5174286;27;19926;-65
2022/12/18 10:58:21;;;;;;;;;;;27.10;21.40;;;;;;5174098;27;19919;-66
2022/12/18 11:01:01;;;;;;;;;;;27.10;21.30;;;;;;5174491;27;19919;-69
2022/12/18 11:03:29;;;;;;;;;;;27.10;21.30;;;;;;5174123;27;19923;-69
2022/12/18 11:06:14;;;;;;;;;;;27.00;21.30;;;;;;5174121;27;20451;-66
2022/12/18 11:08:41;;;;;;;;;;;27.00;21.30;;;;;;5174024;27;19925;-66
2022/12/18 11:11:14;;;;;;;;;;;27.10;21.40;;;;;;5174033;27;20396;-68
2022/12/18 11:13:40;;;;;;;;;;;27.00;21.30;;;;;;5192824;27;20289;-66
2022/12/18 11:16:05;;;;;;;;;;;27.00;21.30;;;;;;5173886;27;19919;-66
2022/12/18 11:18:33;;;;;;;;;;;27.00;21.30;;;;;;5192630;27;19923;-66
2022/12/18 11:21:01;;;;;;;;;;;27.00;21.30;;;;;;5174065;27;19918;-66
2022/12/18 11:23:27;;;;;;;;;;;27.00;21.30;;;;;;5192767;27;19925;-66
2022/12/18 11:25:54;;;;;;;;;;;27.00;21.30;;;;;;5173778;27;19919;-67
2022/12/18 11:33:59;;;;;;;;;;;27.00;21.30;;;;;;5129787;27;1855822;-66
2022/12/18 11:36:25;;;;;;;;;;;27.00;21.30;;;;;;5174550;27;19918;-66
2022/12/18 11:38:53;;;;;;;;;;;27.00;21.30;;;;;;5174376;27;19925;-66
2022/12/18 11:44:03;;;;;;;;;;;27.00;21.30;;;;;;5110273;27;19912;-67
2022/12/18 11:49:17;;;;;;;;;;;27.00;21.30;;;;;;5110290;27;19912;-66
2022/12/18 11:51:48;;;;;;;;;;;27.00;21.30;;;;;;5109009;28;19924;-68
2022/12/18 11:54:14;;;;;;;;;;;27.00;21.30;;;;;;5109153;28;19927;-66
2022/12/18 11:56:46;;;;;;;;;;;27.00;21.40;;;;;;5108897;28;19969;-66
2022/12/18 12:02:01;;;;;;;;;;;27.10;21.40;;;;;;5090014;28;19913;-66
2022/12/18 12:04:38;;;;;;;;;;;27.10;21.30;;;;;;5089863;28;19924;-66
2022/12/18 12:07:12;;;;;;;;;;;27.00;21.30;;;;;;5088905;28;19920;-66
2022/12/18 12:12:45;;;;;;;;;;;27.00;21.40;;;;;;5089978;28;19914;-66
2022/12/18 12:17:55;;;;;;;;;;;27.10;21.40;;;;;;5089954;28;19913;-68
2022/12/18 12:20:41;;;;;;;;;;;27.10;21.30;;;;;;5105540;28;20410;-66
2022/12/18 12:23:26;;;;;;;;;;;27.10;21.30;;;;;;5088704;28;19966;-66
2022/12/18 12:25:56;;;;;;;;;;;27.10;21.30;;;;;;5088286;28;19924;-66
2022/12/18 12:28:34;;;;;;;;;;;27.10;21.30;;;;;;5088727;28;19932;-66
2022/12/18 12:36:55;;;;;;;;;;;27.10;21.30;;;;;;5089916;28;19913;-66
2022/12/18 12:39:23;;;;;;;;;;;27.10;21.30;;;;;;5088782;28;20275;-66
2022/12/18 12:44:38;;;;;;;;;;;27.10;21.30;;;;;;5105682;28;19955;-70
2022/12/18 12:47:11;;;;;;;;;;;27.00;21.30;;;;;;5088469;28;19974;-66
2022/12/18 12:49:37;;;;;;;;;;;27.00;21.40;;;;;;5088488;28;19920;-66
2022/12/18 12:54:43;;;;;;;;;;;27.00;21.40;;;;;;5089984;28;19912;-66
2022/12/18 12:57:11;;;;;;;;;;;27.00;21.40;;;;;;5071741;28;19926;-65
2022/12/18 13:02:26;;;;;;;;;;;27.00;21.40;;;;;;5110300;27;19912;-66
2022/12/18 13:07:37;;;;;;;;;;;27.00;21.40;;;;;;5127606;27;1863531;-66
2022/12/18 13:10:12;;;;;;;;;;;27.00;21.40;;;;;;5174571;27;19958;-68
2022/12/18 13:12:58;;;;;;;;;;;27.00;21.40;;;;;;5174740;27;19967;-66
2022/12/18 13:20:51;;;;;;;;;;;27.00;21.30;;;;;;5089867;28;20362;-68
2022/12/18 13:34:23;;;;;;;;;;;27.00;21.40;;;;;;5110377;27;19918;-66
2022/12/18 13:36:49;;;;;;;;;;;27.00;21.40;;;;;;5109288;28;19920;-67
2022/12/18 13:44:46;;;;;;;;;;;26.90;21.30;;;;;;5089396;28;20262;-66
2022/12/18 13:47:31;;;;;;;;;;;27.00;21.40;;;;;;5088653;28;19926;-66
2022/12/18 13:49:57;;;;;;;;;;;27.00;21.40;;;;;;5088893;28;19930;-66
2022/12/18 13:52:25;;;;;;;;;;;27.00;21.40;;;;;;5088505;28;20007;-66
2022/12/18 13:54:53;;;;;;;;;;;27.00;21.50;;;;;;5088421;28;20457;-66
2022/12/18 13:57:27;;;;;;;;;;;27.00;21.40;;;;;;5088721;28;20362;-66
2022/12/18 13:59:53;;;;;;;;;;;27.00;21.40;;;;;;5088400;28;19931;-66
2022/12/18 14:02:22;;;;;;;;;;;27.00;21.40;;;;;;5089600;28;19920;-66
2022/12/18 14:04:50;;;;;;;;;;;26.90;21.40;;;;;;5088141;28;19931;-66
2022/12/18 14:07:17;;;;;;;;;;;26.90;21.40;;;;;;5088580;28;19973;-66
2022/12/18 14:09:52;;;;;;;;;;;26.90;21.50;;;;;;5088473;28;19989;-66
2022/12/18 14:15:06;;;;;;;;;;;26.90;21.50;;;;;;5087871;28;19978;-66
2022/12/18 14:17:32;;;;;;;;;;;26.90;21.40;;;;;;5088316;28;19931;-66
2022/12/18 14:19:57;;;;;;;;;;;26.90;21.50;;;;;;5089241;28;19920;-66
2022/12/18 14:22:29;;;;;;;;;;;26.90;21.50;;;;;;5089374;28;19920;-66
2022/12/18 14:25:14;;;;;;;;;;;27.00;21.50;;;;;;5088155;28;19935;-66
2022/12/18 14:27:43;;;;;;;;;;;27.00;21.50;;;;;;5087725;28;19921;-68
2022/12/18 14:33:04;;;;;;;;;;;27.00;21.50;;;;;;5089763;28;20288;-66
2022/12/18 14:35:31;;;;;;;;;;;27.00;21.50;;;;;;5088382;28;19927;-66
2022/12/18 14:38:16;;;;;;;;;;;27.00;21.50;;;;;;5088855;28;19920;-66
2022/12/18 14:40:42;;;;;;;;;;;27.00;21.60;;;;;;5089505;28;20315;-66
2022/12/18 14:43:10;;;;;;;;;;;27.00;21.50;;;;;;5088818;28;20007;-69
2022/12/18 14:45:36;;;;;;;;;;;27.00;21.50;;;;;;5089737;28;19924;-66
2022/12/18 14:48:06;;;;;;;;;;;27.00;21.50;;;;;;5088725;28;20352;-66
2022/12/18 14:50:31;;;;;;;;;;;27.00;21.50;;;;;;5088255;28;19921;-66
2022/12/18 14:52:57;;;;;;;;;;;27.00;21.50;;;;;;5089554;28;19920;-66
2022/12/18 14:55:22;;;;;;;;;;;26.90;21.50;;;;;;5088252;28;20432;-66
2022/12/18 14:57:51;;;;;;;;;;;27.00;21.50;;;;;;5089458;28;19921;-66
2022/12/18 15:00:18;;;;;;;;;;;26.90;21.50;;;;;;5088388;28;20371;-66
2022/12/18 15:02:48;;;;;;;;;;;26.90;21.50;;;;;;5088126;28;19969;-69
2022/12/18 15:07:54;;;;;;;;;;;26.90;21.60;;;;;;5128119;27;1850911;-66
2022/12/18 15:10:21;;;;;;;;;;;26.90;21.60;;;;;;5174400;27;19962;-66
2022/12/18 15:23:37;;;;;;;;;;;27.00;21.50;;;;;;5090011;28;19922;-68
2022/12/18 15:26:07;;;;;;;;;;;26.90;21.60;;;;;;5088521;28;20514;-66
2022/12/18 15:36:36;;;;;;;;;;;26.90;21.60;;;;;;5089931;28;19913;-66
2022/12/18 15:39:02;;;;;;;;;;;26.90;21.60;;;;;;5088883;28;19920;-66
2022/12/18 15:41:27;;;;;;;;;;;26.90;21.60;;;;;;5088479;28;20308;-69
2022/12/18 15:43:53;;;;;;;;;;;26.90;21.60;;;;;;5088854;28;19920;-66
2022/12/18 15:46:20;;;;;;;;;;;26.90;21.60;;;;;;5088469;28;19928;-66
2022/12/18 15:48:47;;;;;;;;;;;26.90;21.60;;;;;;5088792;28;19964;-66
2022/12/18 15:51:16;;;;;;;;;;;26.90;21.60;;;;;;5088393;28;19920;-66
2022/12/18 15:53:42;;;;;;;;;;;26.90;21.50;;;;;;5088319;28;20354;-66
2022/12/18 15:58:56;;;;;;;;;;;26.90;21.50;;;;;;5089122;28;19924;-67
2022/12/18 16:01:23;;;;;;;;;;;26.90;21.60;;;;;;5088484;28;19947;-66
2022/12/18 16:03:49;;;;;;;;;;;26.90;22.20;;;;;;5089434;28;19981;-66
2022/12/18 16:06:14;;;;;;;;;;;26.90;21.60;;;;;;5088147;28;19920;-66
2022/12/18 16:08:40;;;;;;;;;;;26.90;21.60;;;;;;5088309;28;19927;-66
2022/12/18 16:11:05;;;;;;;;;;;26.90;21.60;;;;;;5089195;28;20292;-66
2022/12/18 16:13:31;;;;;;;;;;;26.90;21.60;;;;;;5087946;28;20403;-66
2022/12/18 16:15:57;;;;;;;;;;;26.90;21.60;;;;;;5089321;28;19924;-66
2022/12/18 16:18:22;;;;;;;;;;;26.90;21.60;;;;;;5088184;28;20389;-66
2022/12/18 16:20:48;;;;;;;;;;;26.90;21.60;;;;;;5089155;28;19927;-66
2022/12/18 16:23:13;;;;;;;;;;;26.90;21.60;;;;;;5089010;28;20304;-66
2022/12/18 16:25:39;;;;;;;;;;;26.80;21.60;;;;;;5088959;28;19920;-66
2022/12/18 16:28:04;;;;;;;;;;;26.80;21.60;;;;;;5089109;28;20004;-66